• Join FlightAware (Why Join?)
  • Login
  • US Flag 
10:56AM EDT


 

Airport Tracker/Info


-or-


 

Live Flight TrackerFlight Track Log ✈ N534M ✈ 30-Apr-2013 ✈ KGYY - KPTK

Flight Track Log - Related Links

Times and Time Zones

All times are in EDT time to prevent confusion due to time zone crossing. See the N534M flight status page for this flight to view local times or setup timezone preferences in your user account.

Time Position Orientation Groundspeed Altitude Reporting Facility
EDT Latitude Longitude Course Direction KTS MPH feet Rate Location/Type
08:33AM 41.6833 -87.3500 14° North 184 212 5,600  Level Chicago TRACON
08:34AM 41.7508 -87.2975 30° Northeast 236 272 5,900 660 Climbing Chicago Center
08:35AM 41.7639 -87.1964 80° East 273 314 7,200 1,920 Climbing Chicago Center
08:36AM 41.7731 -87.0986 83° East 222 255 9,900 1,320 Climbing Chicago Center
08:37AM 41.7604 -86.9017 69° East  Level Estimated
08:37AM 41.7833 -86.9967 82° East 272 313 10,000  Level Chicago Center
08:38AM 41.7878 -86.8869 87° East 290 334 10,000  Level Chicago Center
08:39AM 41.7958 -86.7778 84° East 296 341 10,000  Level Chicago Center
08:40AM 41.8047 -86.6675 84° East 299 344 10,000 480 Level Chicago Center
08:41AM 41.8111 -86.5594 85° East 295 339 11,000 480 Climbing Chicago Center
08:42AM 41.8194 -86.4564 84° East 282 325 11,000  Level Chicago Center
08:43AM 41.8297 -86.3250 84° East 292 336 11,000  Level Chicago Center
08:44AM 41.8372 -86.2136 85° East 299 344 11,000  Level Chicago Center
08:45AM 41.8453 -86.1031 84° East 299 344 11,000  Level Chicago Center
08:46AM 41.8528 -85.9911 85° East 301 346 11,000  Level Chicago Center
08:47AM 41.8589 -85.8856 86° East 287 330 11,000  Level Chicago Center
08:48AM 41.8672 -85.7717 84° East 303 349 11,000  Level Chicago Center
08:49AM 41.8756 -85.6578 84° East 305 351 11,000  Level Chicago Center
08:50AM 41.8767 -85.5217 89° East 306 352 11,000  Level Chicago Center
08:51AM 41.8642 -85.4106 99° East 299 344 11,000  Level Chicago Center
08:52AM 41.8506 -85.3003 99° East 298 343 11,000  Level Chicago Center
08:53AM 41.8594 -85.1889 84° East 309 356 11,000 -60 Level Chicago Center
08:54AM 41.8717 -85.0769 82° East 304 350 10,900 -60 Descending Chicago Center
08:55AM 41.8836 -84.9664 82° East 300 345 10,900  Level Chicago Center
08:56AM 41.8961 -84.8561 81° East 298 343 10,900  Level Chicago Center
08:58AM 41.9078 -84.7464 82° East 298 343 10,900 -60 Level Chicago Center
08:59AM 41.9217 -84.6142 82° East 298 343 10,800 -480 Descending Chicago Center
09:00AM 41.9331 -84.5031 82° East 301 346 10,000 -720 Descending Chicago Center
09:00AM 41.9408 -84.4442 80° East 304 350 9,700 -660 Descending Cleveland Center
09:01AM 41.9467 -84.3914 82° East 291 335 9,300 -1,020 Descending Cleveland Center
09:01AM 41.9542 -84.2942 84° East 304 350 8,400 -900 Descending Cleveland Center
09:02AM 41.9631 -84.2136 82° East 284 327 7,900 -780 Descending Cleveland Center
09:03AM 41.9686 -84.1636 81° East 291 335 7,500 -900 Descending Cleveland Center
09:03AM 42.0014 -84.1153 48° Northeast 300 345 7,000 -540 Descending Cleveland Center
09:04AM 42.0253 -84.0886 40° Northeast 276 318 7,000 -300 Level Cleveland Center
09:04AM 42.0764 -84.0550 26° Northeast 283 326 6,700 -720 Descending Cleveland Center
09:05AM 42.0953 -84.0450 21° North 261 300 6,300 -1,380 Descending Cleveland Center
09:06AM 42.1733 -84.0183 14° North 266 306 5,000 -1,320 Descending Cleveland Center
09:06AM 42.2217 -84.0042 12° North 277 319 4,200 -1,020 Descending Cleveland Center
09:07AM 42.2469 -83.9914 21° North 272 313 4,000 -180 Descending Cleveland Center
09:08AM 42.3047 -83.9467 30° Northeast 278 320 4,000 -60 Level Cleveland Center
09:08AM 42.3464 -83.8703 54° Northeast 277 319 3,900 -540 Descending Cleveland Center
09:09AM 42.3947 -83.7914 50° Northeast 270 311 3,000 -480 Descending Cleveland Center
09:10AM 42.4425 -83.7150 50° Northeast 280 322 3,000  Level Cleveland Center
09:12AM 42.4994 -83.6192 51° Northeast 276 318 3,000  Level Cleveland Center
09:12AM 42.5406 -83.5564 48° Northeast 277 319 3,000  Level Cleveland Center
09:14AM 42.5994 -83.4603 50° Northeast 283 326 3,000 -420 Level Cleveland Center
09:15AM 42.6447 -83.3947 47° Northeast 206 237 2,100 -840 Descending Cleveland Center